createdAt,value
2023-01-28T00:01:39.161Z,60.60
2023-01-28T00:06:41.109Z,60.58
2023-01-28T00:11:42.963Z,60.71
2023-01-28T00:16:44.849Z,60.82
2023-01-28T00:21:46.697Z,60.94
2023-01-28T00:26:48.943Z,60.91
2023-01-28T00:31:50.927Z,61.19
2023-01-28T00:36:57.502Z,61.23
2023-01-28T00:41:59.415Z,60.74
2023-01-28T00:47:01.327Z,61.11
2023-01-28T00:52:04.126Z,61.38
2023-01-28T00:57:07.181Z,61.24
2023-01-28T01:02:15.314Z,61.23
2023-01-28T01:07:23.047Z,60.85
2023-01-28T01:12:24.890Z,60.96
2023-01-28T01:17:29.726Z,60.96
2023-01-28T01:22:36.654Z,61.11
2023-01-28T01:27:38.558Z,61.01
2023-01-28T01:32:40.447Z,61.16
2023-01-28T01:37:44.682Z,61.39
2023-01-28T01:42:47.227Z,61.29
2023-01-28T01:47:58.170Z,60.99
2023-01-28T01:53:07.582Z,61.26
2023-01-28T01:58:13.581Z,61.18
2023-01-28T02:03:19.803Z,61.12
2023-01-28T02:08:21.689Z,61.50
2023-01-28T02:13:30.436Z,60.92
2023-01-28T02:18:35.370Z,60.94
2023-01-28T02:24:08.459Z,61.46
2023-01-28T02:29:17.116Z,60.85
2023-01-28T02:34:32.075Z,61.56
2023-01-28T02:39:40.818Z,61.49
2023-01-28T02:44:42.651Z,61.49
2023-01-28T02:49:52.104Z,60.98
2023-01-28T02:55:17.811Z,61.45
2023-01-28T03:00:39.173Z,61.10
2023-01-28T03:06:05.341Z,61.05
2023-01-28T03:11:25.814Z,61.45
2023-01-28T03:16:48.417Z,60.89
2023-01-28T03:22:08.897Z,61.12
2023-01-28T03:27:51.943Z,61.30
2023-01-28T03:33:14.980Z,60.99
2023-01-28T03:38:20.881Z,61.34
2023-01-28T03:43:24.221Z,60.94
2023-01-28T03:48:28.403Z,60.91
2023-01-28T03:53:31.549Z,60.98
2023-01-28T03:58:52.085Z,61.21
2023-01-28T04:03:54.284Z,60.79
2023-01-28T04:09:06.071Z,61.61
2023-01-28T04:14:31.419Z,61.03
2023-01-28T04:20:15.767Z,61.41
2023-01-28T04:25:18.039Z,61.33
2023-01-28T04:30:21.305Z,61.14
2023-01-28T04:35:39.974Z,61.09
2023-01-28T04:41:02.218Z,61.29
2023-01-28T04:46:08.423Z,60.78
2023-01-28T04:51:22.971Z,60.84
2023-01-28T04:56:51.043Z,61.11
2023-01-28T05:01:54.221Z,60.89
2023-01-28T05:06:56.892Z,60.60
2023-01-28T05:12:03.452Z,61.01
2023-01-28T05:17:06.985Z,60.58
2023-01-28T05:22:09.162Z,60.67
2023-01-28T05:27:16.759Z,60.39
2023-01-28T05:32:18.765Z,60.18
2023-01-28T05:37:20.955Z,60.00
2023-01-28T05:42:25.375Z,59.89
2023-01-28T05:47:45.530Z,60.35
2023-01-28T05:53:13.158Z,60.05
2023-01-28T05:58:18.421Z,60.18
2023-01-28T06:03:20.326Z,60.17
2023-01-28T06:08:22.324Z,59.96
2023-01-28T06:13:24.500Z,59.73
2023-01-28T06:19:02.037Z,59.80
2023-01-28T06:24:04.755Z,59.77
2023-01-28T06:29:06.673Z,59.76
2023-01-28T06:34:09.984Z,59.75
2023-01-28T06:39:12.285Z,59.40
2023-01-28T06:44:14.105Z,59.62
2023-01-28T06:49:15.977Z,59.57
2023-01-28T06:54:17.818Z,59.42
2023-01-28T06:59:19.624Z,59.35
2023-01-28T07:04:21.446Z,59.36
2023-01-28T07:09:23.434Z,59.12
2023-01-28T07:14:25.278Z,59.12
2023-01-28T07:19:27.094Z,58.92
2023-01-28T07:24:29.889Z,58.91
2023-01-28T07:29:31.755Z,58.80
2023-01-28T07:34:34.027Z,58.97
2023-01-28T07:39:35.899Z,59.00
2023-01-28T07:44:39.333Z,58.76
2023-01-28T07:49:41.241Z,58.61
2023-01-28T07:54:43.122Z,58.57
2023-01-28T07:59:44.924Z,58.32
2023-01-28T08:04:47.103Z,58.22
2023-01-28T08:09:48.954Z,58.20
2023-01-28T08:14:50.759Z,58.12
2023-01-28T08:19:52.646Z,57.96
2023-01-28T08:24:54.476Z,58.03
2023-01-28T08:29:56.317Z,57.95
2023-01-28T08:34:58.216Z,57.91
2023-01-28T08:40:00.138Z,57.91
2023-01-28T08:45:01.968Z,57.81
2023-01-28T08:50:04.068Z,58.01
2023-01-28T08:55:06.327Z,57.73
2023-01-28T09:00:10.883Z,57.72
2023-01-28T09:05:13.084Z,57.58
2023-01-28T09:10:16.761Z,57.72
2023-01-28T09:15:18.847Z,57.77
2023-01-28T09:20:20.679Z,57.74
2023-01-28T09:25:22.530Z,57.71
2023-01-28T09:30:24.934Z,57.59
2023-01-28T09:35:27.098Z,57.44
2023-01-28T09:40:34.874Z,57.33
2023-01-28T09:45:47.224Z,57.21
2023-01-28T09:50:51.803Z,57.45
2023-01-28T09:56:07.353Z,57.29
2023-01-28T10:01:33.613Z,57.22
2023-01-28T10:06:41.084Z,57.30
2023-01-28T10:11:49.642Z,57.33
2023-01-28T10:17:26.645Z,57.12
2023-01-28T10:22:46.023Z,56.94
2023-01-28T10:27:50.114Z,56.88
2023-01-28T10:33:27.305Z,57.11
2023-01-28T10:38:31.160Z,56.84
2023-01-28T10:43:36.137Z,56.81
2023-01-28T10:48:46.258Z,56.59
2023-01-28T10:53:48.136Z,56.52
2023-01-28T10:58:59.954Z,56.64
2023-01-28T11:04:01.829Z,56.20
2023-01-28T11:09:03.773Z,56.65
2023-01-28T11:14:05.774Z,56.19
2023-01-28T11:19:07.733Z,56.22
2023-01-28T11:24:18.131Z,56.20
2023-01-28T11:29:31.982Z,56.24
2023-01-28T11:34:35.298Z,56.12
2023-01-28T11:39:37.145Z,56.25
2023-01-28T11:44:40.324Z,56.01
2023-01-28T11:50:00.146Z,56.11
2023-01-28T11:55:17.601Z,56.15
2023-01-28T12:00:38.444Z,55.97
2023-01-28T12:05:42.866Z,55.98
2023-01-28T12:10:53.297Z,55.95
2023-01-28T12:16:10.277Z,55.90
2023-01-28T12:21:32.763Z,55.78
2023-01-28T12:26:35.755Z,56.13
2023-01-28T12:32:06.778Z,55.53
2023-01-28T12:38:00.159Z,55.67
2023-01-28T12:43:10.769Z,55.70
2023-01-28T12:48:27.263Z,55.76
2023-01-28T12:53:40.964Z,55.73
2023-01-28T12:58:42.724Z,55.67
2023-01-28T13:03:58.288Z,55.29
2023-01-28T13:09:03.569Z,55.40
2023-01-28T13:14:06.326Z,55.37
2023-01-28T13:19:23.122Z,55.27
2023-01-28T13:24:32.168Z,55.14
2023-01-28T13:29:34.808Z,55.41
2023-01-28T13:34:40.763Z,55.18
2023-01-28T13:39:48.785Z,55.58
2023-01-28T13:44:51.269Z,55.03
2023-01-28T13:50:00.180Z,55.41
2023-01-28T13:55:29.390Z,55.33
2023-01-28T14:01:06.061Z,55.13
2023-01-28T14:06:36.773Z,55.17
2023-01-28T14:12:12.573Z,55.26
2023-01-28T14:17:35.708Z,55.27
2023-01-28T14:22:37.571Z,55.07
2023-01-28T14:27:44.354Z,55.23
2023-01-28T14:32:51.805Z,55.20
2023-01-28T14:37:54.895Z,55.32
2023-01-28T14:42:58.298Z,55.37
2023-01-28T14:48:12.214Z,54.85
2023-01-28T14:53:32.794Z,54.89
2023-01-28T14:58:44.445Z,55.21
2023-01-28T15:03:46.571Z,54.99
2023-01-28T15:08:48.925Z,55.24
2023-01-28T15:13:58.074Z,55.10
2023-01-28T15:19:01.982Z,54.87
2023-01-28T15:24:04.978Z,55.26
2023-01-28T15:29:06.837Z,55.01
2023-01-28T15:34:16.869Z,55.09
2023-01-28T15:39:21.840Z,55.09
2023-01-28T15:44:45.031Z,55.16
2023-01-28T15:49:50.476Z,54.96
2023-01-28T15:54:52.688Z,55.17
2023-01-28T16:00:25.248Z,54.80
2023-01-28T16:05:31.177Z,54.98
2023-01-28T16:10:33.415Z,54.62
2023-01-28T16:15:38.453Z,54.56
2023-01-28T16:20:44.645Z,54.65
2023-01-28T16:25:46.545Z,54.22
2023-01-28T16:30:48.430Z,54.42
2023-01-28T16:36:06.569Z,54.58
2023-01-28T16:41:16.146Z,54.23
2023-01-28T16:46:18.090Z,54.29
2023-01-28T16:51:20.940Z,54.46
2023-01-28T17:01:48.138Z,54.57
2023-01-28T17:06:50.377Z,54.66
2023-01-28T17:11:52.772Z,54.63
2023-01-28T17:16:54.618Z,54.58
2023-01-28T17:21:58.088Z,54.70
2023-01-28T17:27:00.115Z,54.32
2023-01-28T17:32:02.328Z,54.22
2023-01-28T17:37:04.294Z,54.17
2023-01-28T17:42:06.287Z,54.24
2023-01-28T17:47:08.196Z,54.37
2023-01-28T17:52:10.053Z,54.41
2023-01-28T17:57:11.836Z,54.59
2023-01-28T18:02:14.270Z,54.39
2023-01-28T18:07:16.713Z,54.32
2023-01-28T18:12:18.990Z,54.37
2023-01-28T18:17:26.778Z,54.28
2023-01-28T18:22:28.681Z,54.18
2023-01-28T18:27:30.530Z,54.37
2023-01-28T18:32:32.575Z,54.31
2023-01-28T18:37:34.394Z,54.32
2023-01-28T18:42:37.674Z,54.10
2023-01-28T18:47:39.541Z,53.83
2023-01-28T18:52:41.644Z,54.24
2023-01-28T18:57:43.535Z,54.29
2023-01-28T19:02:46.662Z,54.36
2023-01-28T19:07:48.653Z,54.41
2023-01-28T19:12:50.914Z,54.57
2023-01-28T19:17:53.486Z,54.47
2023-01-28T19:22:55.593Z,54.46
2023-01-28T19:27:57.650Z,54.94
2023-01-28T19:33:01.079Z,54.86
2023-01-28T19:38:03.741Z,54.64
2023-01-28T19:43:05.579Z,54.75
2023-01-28T19:48:07.401Z,55.39
2023-01-28T19:53:09.715Z,55.13
2023-01-28T19:58:14.934Z,55.24
2023-01-28T20:03:17.052Z,55.17
2023-01-28T20:08:18.872Z,54.78
2023-01-28T20:13:20.871Z,55.15
2023-01-28T20:18:23.197Z,55.08
2023-01-28T20:23:25.039Z,55.11
2023-01-28T20:28:27.940Z,55.30
2023-01-28T20:33:29.757Z,55.13
2023-01-28T20:38:36.108Z,55.15
2023-01-28T20:43:39.610Z,55.31
2023-01-28T20:48:42.000Z,55.25
2023-01-28T20:53:51.107Z,55.55
2023-01-28T20:58:58.220Z,55.07
2023-01-28T21:04:00.200Z,55.28
2023-01-28T21:09:03.068Z,54.93
2023-01-28T21:14:04.938Z,55.04
2023-01-28T21:19:06.733Z,55.87
2023-01-28T21:24:09.073Z,55.81
2023-01-28T21:29:10.976Z,55.62
2023-01-28T21:34:14.545Z,55.55
2023-01-28T21:39:16.433Z,55.45
2023-01-28T21:44:18.546Z,55.18
2023-01-28T21:49:20.415Z,55.34
2023-01-28T21:54:22.246Z,55.15
2023-01-28T21:59:30.614Z,55.63
2023-01-28T22:04:35.160Z,55.33
2023-01-28T22:09:37.945Z,55.28
2023-01-28T22:14:39.835Z,55.42
2023-01-28T22:19:47.898Z,55.17
2023-01-28T22:24:49.719Z,55.24
2023-01-28T22:29:52.030Z,55.12
2023-01-28T22:34:53.840Z,55.00
2023-01-28T22:39:56.282Z,55.09
2023-01-28T22:44:58.321Z,55.01
2023-01-28T22:50:00.152Z,54.63
2023-01-28T22:55:02.170Z,54.88
2023-01-28T23:00:08.570Z,54.85
2023-01-28T23:05:10.899Z,55.03
2023-01-28T23:10:12.918Z,55.26
2023-01-28T23:15:33.387Z,55.26
2023-01-28T23:20:54.046Z,55.13
2023-01-28T23:25:55.848Z,55.02
2023-01-28T23:30:57.721Z,55.46
2023-01-28T23:35:59.642Z,55.48
2023-01-28T23:41:02.330Z,55.30
2023-01-28T23:46:04.475Z,55.42
2023-01-28T23:51:09.386Z,55.46
2023-01-28T23:56:11.531Z,55.19
